sensor_id;sensor_type;location;lat;lon;timestamp;pressure;altitude;pressure_sealevel;temperature;humidity
67740;BME280;54536;50.090;14.420;2023-04-06T00:02:22;99917.28;;;6.94;46.47
67740;BME280;54536;50.090;14.420;2023-04-06T00:04:48;99917.91;;;6.98;45.42
67740;BME280;54536;50.090;14.420;2023-04-06T00:07:14;99912.69;;;6.98;46.34
67740;BME280;54536;50.090;14.420;2023-04-06T00:09:40;99909.63;;;6.91;45.78
67740;BME280;54536;50.090;14.420;2023-04-06T00:12:06;99914.06;;;6.76;46.40
67740;BME280;54536;50.090;14.420;2023-04-06T00:14:32;99909.72;;;6.77;46.21
67740;BME280;54536;50.090;14.420;2023-04-06T00:16:58;99909.50;;;6.53;47.07
67740;BME280;54536;50.090;14.420;2023-04-06T00:19:25;99915.16;;;6.60;46.92
67740;BME280;54536;50.090;14.420;2023-04-06T00:21:51;99914.03;;;6.64;46.56
67740;BME280;54536;50.090;14.420;2023-04-06T00:24:17;99911.97;;;6.69;46.59
67740;BME280;54536;50.090;14.420;2023-04-06T00:26:43;99905.16;;;6.39;46.75
67740;BME280;54536;50.090;14.420;2023-04-06T00:29:09;99905.19;;;6.25;46.87
67740;BME280;54536;50.090;14.420;2023-04-06T00:31:35;99910.41;;;6.10;47.45
67740;BME280;54536;50.090;14.420;2023-04-06T00:34:01;99905.75;;;6.16;47.40
67740;BME280;54536;50.090;14.420;2023-04-06T00:36:27;99902.69;;;6.09;47.16
67740;BME280;54536;50.090;14.420;2023-04-06T00:38:53;99902.31;;;6.15;47.75
67740;BME280;54536;50.090;14.420;2023-04-06T00:41:20;99899.81;;;5.99;48.06
67740;BME280;54536;50.090;14.420;2023-04-06T00:43:46;99893.31;;;6.33;47.57
67740;BME280;54536;50.090;14.420;2023-04-06T00:46:12;99898.13;;;6.13;48.11
67740;BME280;54536;50.090;14.420;2023-04-06T00:48:38;99892.16;;;6.10;48.55
67740;BME280;54536;50.090;14.420;2023-04-06T00:51:05;99898.50;;;5.92;48.33
67740;BME280;54536;50.090;14.420;2023-04-06T00:53:31;99898.97;;;5.99;48.62
67740;BME280;54536;50.090;14.420;2023-04-06T00:55:57;99887.97;;;5.79;48.56
67740;BME280;54536;50.090;14.420;2023-04-06T00:58:26;99883.41;;;5.97;48.49
67740;BME280;54536;50.090;14.420;2023-04-06T01:00:53;99885.69;;;5.87;48.28
67740;BME280;54536;50.090;14.420;2023-04-06T01:03:19;99890.00;;;5.89;48.42
67740;BME280;54536;50.090;14.420;2023-04-06T01:05:46;99892.06;;;5.69;48.54
67740;BME280;54536;50.090;14.420;2023-04-06T01:08:12;99893.28;;;5.92;48.84
67740;BME280;54536;50.090;14.420;2023-04-06T01:10:38;99895.50;;;5.98;48.47
67740;BME280;54536;50.090;14.420;2023-04-06T01:13:04;99897.47;;;5.80;48.19
67740;BME280;54536;50.090;14.420;2023-04-06T01:15:33;99895.59;;;5.82;48.78
67740;BME280;54536;50.090;14.420;2023-04-06T01:18:01;99892.41;;;5.92;48.44
67740;BME280;54536;50.090;14.420;2023-04-06T01:20:27;99897.28;;;5.69;48.61
67740;BME280;54536;50.090;14.420;2023-04-06T01:22:53;99896.72;;;5.64;48.49
67740;BME280;54536;50.090;14.420;2023-04-06T01:25:19;99895.94;;;5.33;49.74
67740;BME280;54536;50.090;14.420;2023-04-06T01:27:45;99892.75;;;5.43;49.29
67740;BME280;54536;50.090;14.420;2023-04-06T01:30:12;99893.34;;;5.33;49.55
67740;BME280;54536;50.090;14.420;2023-04-06T01:32:38;99896.78;;;5.34;49.64
67740;BME280;54536;50.090;14.420;2023-04-06T01:35:04;99895.88;;;5.05;50.42
67740;BME280;54536;50.090;14.420;2023-04-06T01:37:30;99890.72;;;5.48;49.91
67740;BME280;54536;50.090;14.420;2023-04-06T01:39:59;99891.84;;;5.58;49.14
67740;BME280;54536;50.090;14.420;2023-04-06T01:42:26;99896.06;;;5.60;49.36
67740;BME280;54536;50.090;14.420;2023-04-06T01:44:52;99888.69;;;5.67;48.85
67740;BME280;54536;50.090;14.420;2023-04-06T01:47:19;99883.09;;;5.59;48.41
67740;BME280;54536;50.090;14.420;2023-04-06T01:49:45;99894.72;;;5.39;49.40
67740;BME280;54536;50.090;14.420;2023-04-06T01:52:17;99886.75;;;5.12;49.86
67740;BME280;54536;50.090;14.420;2023-04-06T01:54:44;99886.00;;;5.10;50.43
67740;BME280;54536;50.090;14.420;2023-04-06T01:57:10;99880.34;;;5.18;50.47
67740;BME280;54536;50.090;14.420;2023-04-06T01:59:43;99882.00;;;5.04;50.49
67740;BME280;54536;50.090;14.420;2023-04-06T02:02:09;99882.03;;;5.19;50.67
67740;BME280;54536;50.090;14.420;2023-04-06T02:04:35;99886.81;;;5.40;50.14
67740;BME280;54536;50.090;14.420;2023-04-06T02:07:01;99885.03;;;5.41;49.49
67740;BME280;54536;50.090;14.420;2023-04-06T02:09:27;99888.13;;;5.48;49.52
67740;BME280;54536;50.090;14.420;2023-04-06T02:11:53;99885.81;;;5.43;49.37
67740;BME280;54536;50.090;14.420;2023-04-06T02:14:20;99888.78;;;5.51;49.27
67740;BME280;54536;50.090;14.420;2023-04-06T02:16:45;99879.81;;;5.27;49.86
67740;BME280;54536;50.090;14.420;2023-04-06T02:19:12;99891.34;;;5.23;49.81
67740;BME280;54536;50.090;14.420;2023-04-06T02:21:38;99882.31;;;5.14;50.11
67740;BME280;54536;50.090;14.420;2023-04-06T02:24:04;99876.56;;;5.23;50.87
67740;BME280;54536;50.090;14.420;2023-04-06T02:26:31;99879.25;;;5.36;49.55
67740;BME280;54536;50.090;14.420;2023-04-06T02:28:57;99880.31;;;5.03;49.99
67740;BME280;54536;50.090;14.420;2023-04-06T02:31:29;99876.03;;;5.02;50.27
67740;BME280;54536;50.090;14.420;2023-04-06T02:34:01;99882.88;;;4.89;50.64
67740;BME280;54536;50.090;14.420;2023-04-06T02:36:27;99888.19;;;4.87;50.47
67740;BME280;54536;50.090;14.420;2023-04-06T02:38:54;99880.97;;;4.77;50.69
67740;BME280;54536;50.090;14.420;2023-04-06T02:41:27;99886.19;;;4.61;50.98
67740;BME280;54536;50.090;14.420;2023-04-06T02:43:53;99878.53;;;4.74;51.32
67740;BME280;54536;50.090;14.420;2023-04-06T02:46:19;99875.66;;;4.94;50.66
67740;BME280;54536;50.090;14.420;2023-04-06T02:48:51;99876.19;;;4.85;50.22
67740;BME280;54536;50.090;14.420;2023-04-06T02:51:18;99871.47;;;4.76;50.45
67740;BME280;54536;50.090;14.420;2023-04-06T02:53:44;99874.59;;;4.66;51.15
67740;BME280;54536;50.090;14.420;2023-04-06T02:56:11;99875.75;;;4.77;50.89
67740;BME280;54536;50.090;14.420;2023-04-06T02:58:43;99881.88;;;4.91;50.73
67740;BME280;54536;50.090;14.420;2023-04-06T03:01:09;99875.44;;;4.67;50.96
67740;BME280;54536;50.090;14.420;2023-04-06T03:03:36;99878.72;;;4.70;51.12
67740;BME280;54536;50.090;14.420;2023-04-06T03:06:02;99879.63;;;4.85;50.64
67740;BME280;54536;50.090;14.420;2023-04-06T03:08:29;99881.94;;;4.90;50.29
67740;BME280;54536;50.090;14.420;2023-04-06T03:10:55;99878.84;;;4.83;50.26
67740;BME280;54536;50.090;14.420;2023-04-06T03:13:22;99882.19;;;4.71;50.24
67740;BME280;54536;50.090;14.420;2023-04-06T03:15:48;99887.25;;;4.42;51.31
67740;BME280;54536;50.090;14.420;2023-04-06T03:18:22;99886.56;;;4.55;50.59
67740;BME280;54536;50.090;14.420;2023-04-06T03:20:49;99881.38;;;4.55;50.92
67740;BME280;54536;50.090;14.420;2023-04-06T03:23:15;99887.72;;;4.65;50.83
67740;BME280;54536;50.090;14.420;2023-04-06T03:25:42;99886.31;;;4.59;50.97
67740;BME280;54536;50.090;14.420;2023-04-06T03:28:10;99890.91;;;4.54;50.96
67740;BME280;54536;50.090;14.420;2023-04-06T03:30:37;99887.47;;;4.54;50.78
67740;BME280;54536;50.090;14.420;2023-04-06T03:33:09;99884.81;;;4.39;50.95
67740;BME280;54536;50.090;14.420;2023-04-06T03:35:35;99891.78;;;4.39;51.18
67740;BME280;54536;50.090;14.420;2023-04-06T03:38:03;99891.19;;;4.34;52.15
67740;BME280;54536;50.090;14.420;2023-04-06T03:40:30;99890.69;;;4.43;51.35
67740;BME280;54536;50.090;14.420;2023-04-06T03:42:57;99895.56;;;4.49;51.49
67740;BME280;54536;50.090;14.420;2023-04-06T03:45:24;99894.41;;;4.39;51.93
67740;BME280;54536;50.090;14.420;2023-04-06T03:47:50;99897.41;;;4.31;51.49
67740;BME280;54536;50.090;14.420;2023-04-06T03:50:17;99902.44;;;4.50;51.52
67740;BME280;54536;50.090;14.420;2023-04-06T03:52:43;99899.59;;;4.39;51.81
67740;BME280;54536;50.090;14.420;2023-04-06T03:55:10;99901.09;;;4.27;51.90
67740;BME280;54536;50.090;14.420;2023-04-06T03:57:42;99905.88;;;4.35;51.84
67740;BME280;54536;50.090;14.420;2023-04-06T04:00:09;99909.34;;;4.35;52.01
67740;BME280;54536;50.090;14.420;2023-04-06T04:02:36;99911.25;;;4.47;51.67
67740;BME280;54536;50.090;14.420;2023-04-06T04:05:02;99910.25;;;4.03;53.15
67740;BME280;54536;50.090;14.420;2023-04-06T04:07:29;99910.91;;;4.06;53.09
67740;BME280;54536;50.090;14.420;2023-04-06T04:09:57;99907.63;;;4.18;52.50
67740;BME280;54536;50.090;14.420;2023-04-06T04:12:25;99910.81;;;4.08;52.53
67740;BME280;54536;50.090;14.420;2023-04-06T04:14:51;99917.22;;;4.18;52.81
67740;BME280;54536;50.090;14.420;2023-04-06T04:17:21;99912.34;;;4.12;52.40
67740;BME280;54536;50.090;14.420;2023-04-06T04:19:47;99910.78;;;4.25;52.47
67740;BME280;54536;50.090;14.420;2023-04-06T04:22:14;99913.53;;;4.06;53.30
67740;BME280;54536;50.090;14.420;2023-04-06T04:24:40;99910.84;;;4.23;52.92
67740;BME280;54536;50.090;14.420;2023-04-06T04:27:07;99910.44;;;4.15;53.14
67740;BME280;54536;50.090;14.420;2023-04-06T04:29:33;99917.81;;;4.23;52.78
67740;BME280;54536;50.090;14.420;2023-04-06T04:32:00;99914.94;;;4.28;52.86
67740;BME280;54536;50.090;14.420;2023-04-06T04:34:29;99922.19;;;4.22;52.88
67740;BME280;54536;50.090;14.420;2023-04-06T04:36:56;99926.47;;;4.23;52.62
67740;BME280;54536;50.090;14.420;2023-04-06T04:39:23;99917.47;;;4.13;52.64
67740;BME280;54536;50.090;14.420;2023-04-06T04:41:49;99922.59;;;3.99;52.97
67740;BME280;54536;50.090;14.420;2023-04-06T04:44:15;99925.94;;;4.17;52.20
67740;BME280;54536;50.090;14.420;2023-04-06T04:46:41;99927.34;;;3.91;53.23
67740;BME280;54536;50.090;14.420;2023-04-06T04:49:08;99927.63;;;4.18;52.32
67740;BME280;54536;50.090;14.420;2023-04-06T04:51:34;99932.66;;;4.21;51.97
67740;BME280;54536;50.090;14.420;2023-04-06T04:54:00;99935.94;;;4.25;52.37
67740;BME280;54536;50.090;14.420;2023-04-06T04:56:26;99933.34;;;4.25;52.03
67740;BME280;54536;50.090;14.420;2023-04-06T04:59:06;99934.28;;;4.39;51.89
67740;BME280;54536;50.090;14.420;2023-04-06T05:01:32;99933.44;;;4.39;51.16
67740;BME280;54536;50.090;14.420;2023-04-06T05:04:11;99935.03;;;4.41;51.48
67740;BME280;54536;50.090;14.420;2023-04-06T05:06:37;99939.03;;;4.31;51.61
67740;BME280;54536;50.090;14.420;2023-04-06T05:09:04;99934.50;;;4.35;52.56
67740;BME280;54536;50.090;14.420;2023-04-06T05:11:30;99939.44;;;4.08;52.64
67740;BME280;54536;50.090;14.420;2023-04-06T05:14:04;99938.31;;;4.29;52.56
67740;BME280;54536;50.090;14.420;2023-04-06T05:16:34;99932.91;;;4.16;52.62
67740;BME280;54536;50.090;14.420;2023-04-06T05:19:01;99946.34;;;4.25;52.18
67740;BME280;54536;50.090;14.420;2023-04-06T05:21:33;99938.88;;;4.18;53.05
67740;BME280;54536;50.090;14.420;2023-04-06T05:23:59;99938.94;;;4.01;53.60
67740;BME280;54536;50.090;14.420;2023-04-06T05:26:29;99945.34;;;4.27;52.67
67740;BME280;54536;50.090;14.420;2023-04-06T05:28:57;99944.06;;;4.03;52.96
67740;BME280;54536;50.090;14.420;2023-04-06T05:31:23;99940.09;;;3.95;53.23
67740;BME280;54536;50.090;14.420;2023-04-06T05:33:50;99954.50;;;3.85;53.44
67740;BME280;54536;50.090;14.420;2023-04-06T05:36:16;99950.78;;;4.07;53.10
67740;BME280;54536;50.090;14.420;2023-04-06T05:38:42;99944.41;;;4.28;52.89
67740;BME280;54536;50.090;14.420;2023-04-06T05:41:09;99943.91;;;4.06;52.70
67740;BME280;54536;50.090;14.420;2023-04-06T05:43:36;99944.31;;;3.98;53.45
67740;BME280;54536;50.090;14.420;2023-04-06T05:46:02;99947.88;;;4.13;53.06
67740;BME280;54536;50.090;14.420;2023-04-06T05:48:36;99949.13;;;4.21;52.38
67740;BME280;54536;50.090;14.420;2023-04-06T05:51:10;99952.06;;;4.47;51.96
67740;BME280;54536;50.090;14.420;2023-04-06T05:53:37;99950.66;;;4.41;51.95
67740;BME280;54536;50.090;14.420;2023-04-06T05:56:04;99949.22;;;4.20;52.44
67740;BME280;54536;50.090;14.420;2023-04-06T05:58:30;99952.31;;;4.27;52.37
67740;BME280;54536;50.090;14.420;2023-04-06T06:01:01;99945.06;;;4.00;52.97
67740;BME280;54536;50.090;14.420;2023-04-06T06:03:36;99944.84;;;4.36;52.33
67740;BME280;54536;50.090;14.420;2023-04-06T06:06:08;99945.59;;;4.22;52.66
67740;BME280;54536;50.090;14.420;2023-04-06T06:08:34;99952.56;;;4.38;52.26
67740;BME280;54536;50.090;14.420;2023-04-06T06:11:04;99946.81;;;4.64;51.96
67740;BME280;54536;50.090;14.420;2023-04-06T06:13:31;99945.75;;;4.67;50.74
67740;BME280;54536;50.090;14.420;2023-04-06T06:15:57;99949.31;;;4.66;50.36
67740;BME280;54536;50.090;14.420;2023-04-06T06:18:23;99945.94;;;4.80;50.50
67740;BME280;54536;50.090;14.420;2023-04-06T06:20:52;99943.59;;;4.75;51.30
67740;BME280;54536;50.090;14.420;2023-04-06T06:23:18;99948.44;;;4.97;50.08
67740;BME280;54536;50.090;14.420;2023-04-06T06:25:45;99948.69;;;4.92;50.19
67740;BME280;54536;50.090;14.420;2023-04-06T06:28:12;99949.31;;;5.12;49.65
67740;BME280;54536;50.090;14.420;2023-04-06T06:30:38;99949.31;;;5.12;50.36
67740;BME280;54536;50.090;14.420;2023-04-06T06:33:04;99949.00;;;5.32;50.09
67740;BME280;54536;50.090;14.420;2023-04-06T06:35:30;99944.00;;;5.44;49.77
67740;BME280;54536;50.090;14.420;2023-04-06T06:37:57;99951.88;;;5.28;50.36
67740;BME280;54536;50.090;14.420;2023-04-06T06:40:41;99952.84;;;5.41;49.98
67740;BME280;54536;50.090;14.420;2023-04-06T06:43:07;99954.28;;;5.47;49.44
67740;BME280;54536;50.090;14.420;2023-04-06T06:45:34;99952.78;;;5.57;49.60
67740;BME280;54536;50.090;14.420;2023-04-06T06:48:01;99959.38;;;5.93;49.10
67740;BME280;54536;50.090;14.420;2023-04-06T06:50:27;99958.25;;;5.97;48.28
67740;BME280;54536;50.090;14.420;2023-04-06T06:52:53;99953.75;;;6.27;47.51
67740;BME280;54536;50.090;14.420;2023-04-06T06:55:20;99950.41;;;6.25;47.05
67740;BME280;54536;50.090;14.420;2023-04-06T06:57:47;99945.59;;;6.05;47.99
67740;BME280;54536;50.090;14.420;2023-04-06T07:00:14;99954.63;;;6.14;47.68
67740;BME280;54536;50.090;14.420;2023-04-06T07:02:41;99952.84;;;6.00;48.37
67740;BME280;54536;50.090;14.420;2023-04-06T07:05:08;99956.94;;;6.04;48.24
67740;BME280;54536;50.090;14.420;2023-04-06T07:07:34;99956.28;;;6.15;48.00
67740;BME280;54536;50.090;14.420;2023-04-06T07:10:01;99956.09;;;6.32;47.38
67740;BME280;54536;50.090;14.420;2023-04-06T07:12:30;99960.78;;;6.13;47.54
67740;BME280;54536;50.090;14.420;2023-04-06T07:14:56;99958.25;;;6.25;47.45
67740;BME280;54536;50.090;14.420;2023-04-06T07:17:23;99943.13;;;6.45;47.09
67740;BME280;54536;50.090;14.420;2023-04-06T07:19:49;99944.69;;;6.47;46.88
67740;BME280;54536;50.090;14.420;2023-04-06T07:22:16;99941.09;;;6.63;46.62
67740;BME280;54536;50.090;14.420;2023-04-06T07:24:42;99941.78;;;6.79;46.58
67740;BME280;54536;50.090;14.420;2023-04-06T07:27:08;99948.84;;;6.91;46.42
67740;BME280;54536;50.090;14.420;2023-04-06T07:29:34;99943.94;;;6.87;45.76
67740;BME280;54536;50.090;14.420;2023-04-06T07:32:02;99944.81;;;6.73;45.98
67740;BME280;54536;50.090;14.420;2023-04-06T07:34:30;99943.78;;;6.75;45.69
67740;BME280;54536;50.090;14.420;2023-04-06T07:36:57;99937.28;;;7.08;45.14
67740;BME280;54536;50.090;14.420;2023-04-06T07:39:23;99937.16;;;6.97;45.17
67740;BME280;54536;50.090;14.420;2023-04-06T07:41:50;99942.41;;;6.97;45.13
67740;BME280;54536;50.090;14.420;2023-04-06T07:44:16;99935.50;;;7.09;44.56
67740;BME280;54536;50.090;14.420;2023-04-06T07:46:43;99931.50;;;7.30;44.69
67740;BME280;54536;50.090;14.420;2023-04-06T07:49:10;99937.22;;;7.35;44.82
67740;BME280;54536;50.090;14.420;2023-04-06T07:51:39;99927.97;;;7.57;44.13
67740;BME280;54536;50.090;14.420;2023-04-06T07:54:06;99929.13;;;7.65;43.48
67740;BME280;54536;50.090;14.420;2023-04-06T07:56:33;99936.66;;;7.70;43.81
67740;BME280;54536;50.090;14.420;2023-04-06T07:59:06;99939.56;;;7.78;43.39
67740;BME280;54536;50.090;14.420;2023-04-06T08:01:32;99935.69;;;7.71;43.42
67740;BME280;54536;50.090;14.420;2023-04-06T08:03:59;99935.69;;;7.96;43.23
67740;BME280;54536;50.090;14.420;2023-04-06T08:06:28;99931.91;;;8.01;43.58
67740;BME280;54536;50.090;14.420;2023-04-06T08:08:55;99936.41;;;8.11;43.19
67740;BME280;54536;50.090;14.420;2023-04-06T08:11:34;99935.47;;;8.12;42.22
67740;BME280;54536;50.090;14.420;2023-04-06T08:14:00;99932.31;;;8.20;41.81
67740;BME280;54536;50.090;14.420;2023-04-06T08:16:29;99926.41;;;8.29;41.94
67740;BME280;54536;50.090;14.420;2023-04-06T08:18:55;99930.22;;;8.38;41.32
67740;BME280;54536;50.090;14.420;2023-04-06T08:21:21;99925.25;;;8.46;41.03
67740;BME280;54536;50.090;14.420;2023-04-06T08:23:48;99931.97;;;8.37;40.65
67740;BME280;54536;50.090;14.420;2023-04-06T08:26:14;99926.38;;;8.55;40.68
67740;BME280;54536;50.090;14.420;2023-04-06T08:28:43;99923.28;;;8.74;40.16
67740;BME280;54536;50.090;14.420;2023-04-06T08:31:09;99924.53;;;8.92;39.21
67740;BME280;54536;50.090;14.420;2023-04-06T08:33:35;99920.56;;;9.10;38.92
67740;BME280;54536;50.090;14.420;2023-04-06T08:36:13;99918.34;;;9.28;38.12
67740;BME280;54536;50.090;14.420;2023-04-06T08:38:40;99921.47;;;9.45;38.04
67740;BME280;54536;50.090;14.420;2023-04-06T08:41:10;99916.50;;;9.53;37.60
67740;BME280;54536;50.090;14.420;2023-04-06T08:43:47;99915.31;;;9.46;36.08
67740;BME280;54536;50.090;14.420;2023-04-06T08:46:14;99916.28;;;9.56;35.02
67740;BME280;54536;50.090;14.420;2023-04-06T08:48:42;99915.22;;;9.58;34.49
67740;BME280;54536;50.090;14.420;2023-04-06T08:51:09;99919.00;;;9.54;34.01
67740;BME280;54536;50.090;14.420;2023-04-06T08:53:37;99921.28;;;9.59;33.46
67740;BME280;54536;50.090;14.420;2023-04-06T08:56:05;99920.94;;;9.64;33.43
67740;BME280;54536;50.090;14.420;2023-04-06T08:58:37;99919.38;;;9.61;33.85
67740;BME280;54536;50.090;14.420;2023-04-06T09:01:11;99912.25;;;9.85;34.28
67740;BME280;54536;50.090;14.420;2023-04-06T09:03:40;99914.03;;;9.96;34.11
67740;BME280;54536;50.090;14.420;2023-04-06T09:06:07;99911.06;;;10.01;32.96
67740;BME280;54536;50.090;14.420;2023-04-06T09:08:36;99912.84;;;9.89;32.91
67740;BME280;54536;50.090;14.420;2023-04-06T09:11:03;99907.00;;;10.08;33.24
67740;BME280;54536;50.090;14.420;2023-04-06T09:13:30;99906.50;;;10.03;32.17
67740;BME280;54536;50.090;14.420;2023-04-06T09:16:02;99905.28;;;10.07;32.66
67740;BME280;54536;50.090;14.420;2023-04-06T09:18:33;99903.06;;;9.91;32.64
67740;BME280;54536;50.090;14.420;2023-04-06T09:21:07;99898.84;;;10.22;33.11
67740;BME280;54536;50.090;14.420;2023-04-06T09:23:34;99896.94;;;10.24;33.29
67740;BME280;54536;50.090;14.420;2023-04-06T09:26:17;99881.91;;;10.26;32.45
67740;BME280;54536;50.090;14.420;2023-04-06T09:28:54;99887.03;;;10.28;31.96
67740;BME280;54536;50.090;14.420;2023-04-06T09:31:29;99885.34;;;10.38;32.77
67740;BME280;54536;50.090;14.420;2023-04-06T09:33:59;99888.91;;;10.60;31.91
67740;BME280;54536;50.090;14.420;2023-04-06T09:36:34;99884.75;;;10.78;30.83
67740;BME280;54536;50.090;14.420;2023-04-06T09:39:03;99880.22;;;10.80;30.66
67740;BME280;54536;50.090;14.420;2023-04-06T09:41:35;99880.97;;;10.92;30.51
67740;BME280;54536;50.090;14.420;2023-04-06T09:44:06;99879.28;;;11.02;31.04
67740;BME280;54536;50.090;14.420;2023-04-06T09:46:35;99878.00;;;11.17;31.43
67740;BME280;54536;50.090;14.420;2023-04-06T09:49:03;99872.94;;;11.25;30.94
67740;BME280;54536;50.090;14.420;2023-04-06T09:51:38;99879.09;;;11.36;30.55
67740;BME280;54536;50.090;14.420;2023-04-06T09:54:06;99875.94;;;11.42;29.32
67740;BME280;54536;50.090;14.420;2023-04-06T09:57:19;99869.06;;;11.30;29.97
67740;BME280;54536;50.090;14.420;2023-04-06T10:08:15;99864.47;;;11.83;27.97
67740;BME280;54536;50.090;14.420;2023-04-06T10:10:42;99858.78;;;11.78;26.00
67740;BME280;54536;50.090;14.420;2023-04-06T10:13:11;99849.59;;;11.72;27.55
67740;BME280;54536;50.090;14.420;2023-04-06T10:15:38;99856.78;;;11.70;28.01
67740;BME280;54536;50.090;14.420;2023-04-06T10:18:06;99850.81;;;11.89;28.13
67740;BME280;54536;50.090;14.420;2023-04-06T10:25:52;99854.00;;;11.93;27.59
67740;BME280;54536;50.090;14.420;2023-04-06T10:28:20;99849.31;;;11.97;28.15
67740;BME280;54536;50.090;14.420;2023-04-06T10:30:45;99848.47;;;11.96;27.40
67740;BME280;54536;50.090;14.420;2023-04-06T10:33:16;99847.38;;;11.99;29.60
67740;BME280;54536;50.090;14.420;2023-04-06T10:35:43;99849.22;;;12.08;27.53
67740;BME280;54536;50.090;14.420;2023-04-06T10:38:09;99842.06;;;11.89;26.83
67740;BME280;54536;50.090;14.420;2023-04-06T10:40:38;99839.19;;;12.02;25.65
67740;BME280;54536;50.090;14.420;2023-04-06T10:43:22;99832.44;;;12.18;26.40
67740;BME280;54536;50.090;14.420;2023-04-06T10:46:00;99829.56;;;12.31;25.66
67740;BME280;54536;50.090;14.420;2023-04-06T10:48:44;99824.84;;;12.54;25.65
67740;BME280;54536;50.090;14.420;2023-04-06T10:51:17;99823.31;;;12.71;26.96
67740;BME280;54536;50.090;14.420;2023-04-06T10:53:48;99821.22;;;12.75;26.38
67740;BME280;54536;50.090;14.420;2023-04-06T10:56:17;99816.81;;;12.75;26.13
67740;BME280;54536;50.090;14.420;2023-04-06T10:58:52;99822.19;;;13.12;26.14
67740;BME280;54536;50.090;14.420;2023-04-06T11:01:21;99820.94;;;12.87;24.96
67740;BME280;54536;50.090;14.420;2023-04-06T11:03:56;99819.31;;;12.77;24.68
67740;BME280;54536;50.090;14.420;2023-04-06T11:06:28;99822.22;;;12.83;24.73
67740;BME280;54536;50.090;14.420;2023-04-06T11:08:56;99823.63;;;13.81;24.15
67740;BME280;54536;50.090;14.420;2023-04-06T11:11:24;99814.09;;;13.98;23.35
67740;BME280;54536;50.090;14.420;2023-04-06T11:13:55;99807.47;;;14.12;23.99
67740;BME280;54536;50.090;14.420;2023-04-06T11:16:24;99812.84;;;13.93;23.97
67740;BME280;54536;50.090;14.420;2023-04-06T11:18:56;99811.88;;;13.66;24.35
67740;BME280;54536;50.090;14.420;2023-04-06T11:21:33;99807.72;;;13.91;24.27
67740;BME280;54536;50.090;14.420;2023-04-06T11:26:40;99800.81;;;15.23;22.51
67740;BME280;54536;50.090;14.420;2023-04-06T11:29:07;99806.88;;;15.34;21.42
67740;BME280;54536;50.090;14.420;2023-04-06T11:31:51;99807.22;;;14.69;22.32
67740;BME280;54536;50.090;14.420;2023-04-06T11:34:22;99803.72;;;14.33;22.17
67740;BME280;54536;50.090;14.420;2023-04-06T11:36:54;99800.09;;;14.51;21.73
67740;BME280;54536;50.090;14.420;2023-04-06T11:39:23;99796.59;;;14.87;21.15
67740;BME280;54536;50.090;14.420;2023-04-06T11:41:54;99788.22;;;15.17;21.28
67740;BME280;54536;50.090;14.420;2023-04-06T11:47:03;99790.25;;;14.80;21.05
67740;BME280;54536;50.090;14.420;2023-04-06T11:49:31;99788.84;;;14.67;21.72
67740;BME280;54536;50.090;14.420;2023-04-06T11:51:58;99792.16;;;14.51;21.25
67740;BME280;54536;50.090;14.420;2023-04-06T11:54:36;99796.97;;;14.38;21.70
67740;BME280;54536;50.090;14.420;2023-04-06T11:57:04;99785.75;;;14.72;21.18
67740;BME280;54536;50.090;14.420;2023-04-06T11:59:32;99782.41;;;14.70;21.89
67740;BME280;54536;50.090;14.420;2023-04-06T12:01:58;99782.31;;;14.80;21.48
67740;BME280;54536;50.090;14.420;2023-04-06T12:04:26;99780.59;;;14.88;21.07
67740;BME280;54536;50.090;14.420;2023-04-06T12:06:52;99760.34;;;15.39;20.03
67740;BME280;54536;50.090;14.420;2023-04-06T12:09:19;99761.25;;;15.56;20.47
67740;BME280;54536;50.090;14.420;2023-04-06T12:11:45;99760.47;;;15.64;20.58
67740;BME280;54536;50.090;14.420;2023-04-06T12:14:12;99754.06;;;15.40;20.09
67740;BME280;54536;50.090;14.420;2023-04-06T12:16:38;99770.47;;;15.70;21.36
67740;BME280;54536;50.090;14.420;2023-04-06T12:19:06;99760.41;;;15.56;20.95
67740;BME280;54536;50.090;14.420;2023-04-06T12:21:35;99762.34;;;15.72;21.60
67740;BME280;54536;50.090;14.420;2023-04-06T12:24:05;99760.94;;;15.94;21.26
67740;BME280;54536;50.090;14.420;2023-04-06T12:26:32;99760.09;;;15.51;21.38
67740;BME280;54536;50.090;14.420;2023-04-06T12:28:59;99758.47;;;16.25;20.29
67740;BME280;54536;50.090;14.420;2023-04-06T12:31:35;99759.63;;;15.63;22.04
67740;BME280;54536;50.090;14.420;2023-04-06T12:34:02;99754.88;;;16.83;20.34
67740;BME280;54536;50.090;14.420;2023-04-06T12:36:29;99749.78;;;17.85;19.19
67740;BME280;54536;50.090;14.420;2023-04-06T12:38:55;99745.13;;;18.56;17.71
67740;BME280;54536;50.090;14.420;2023-04-06T12:41:22;99740.31;;;19.27;17.10
67740;BME280;54536;50.090;14.420;2023-04-06T12:43:49;99742.66;;;20.17;16.37
67740;BME280;54536;50.090;14.420;2023-04-06T12:46:17;99735.06;;;20.85;15.29
67740;BME280;54536;50.090;14.420;2023-04-06T12:48:43;99730.88;;;20.76;15.18
67740;BME280;54536;50.090;14.420;2023-04-06T12:51:09;99729.94;;;21.18;14.87
67740;BME280;54536;50.090;14.420;2023-04-06T12:53:36;99737.28;;;21.86;15.36
67740;BME280;54536;50.090;14.420;2023-04-06T12:56:09;99737.63;;;22.24;14.63
67740;BME280;54536;50.090;14.420;2023-04-06T12:58:36;99722.47;;;21.96;14.96
67740;BME280;54536;50.090;14.420;2023-04-06T13:01:06;99722.13;;;22.19;14.51
67740;BME280;54536;50.090;14.420;2023-04-06T13:03:34;99719.06;;;22.56;14.21
67740;BME280;54536;50.090;14.420;2023-04-06T13:06:01;99713.28;;;22.19;14.10
67740;BME280;54536;50.090;14.420;2023-04-06T13:08:27;99709.53;;;21.11;14.83
67740;BME280;54536;50.090;14.420;2023-04-06T13:10:53;99711.03;;;21.68;14.99
67740;BME280;54536;50.090;14.420;2023-04-06T13:13:28;99724.81;;;20.89;15.10
67740;BME280;54536;50.090;14.420;2023-04-06T13:15:58;99708.25;;;20.50;15.54
67740;BME280;54536;50.090;14.420;2023-04-06T13:18:25;99711.38;;;19.75;15.46
67740;BME280;54536;50.090;14.420;2023-04-06T13:20:50;99714.53;;;18.75;17.52
67740;BME280;54536;50.090;14.420;2023-04-06T13:23:16;99713.00;;;18.80;17.79